Time;durP1;ratioP1;P1;durP2;ratioP2;P2;SDS_P1;SDS_P2;PMS_P1;PMS_P2;Temp;Humidity;BMP_temperature;BMP_pressure;BME280_temperature;BME280_humidity;BME280_pressure;Samples;Min_cycle;Max_cycle;Signal;HPM_P1;HPM_P2
2021/01/02 00:00:06;;;;;;;17.50;5.30;;;4.70;99.90;;;;;;10154276;29;20156;-76
2021/01/02 00:05:09;;;;;;;15.52;5.40;;;4.70;99.90;;;;;;10155536;29;20048;-78
2021/01/02 00:10:14;;;;;;;;;;;4.60;99.90;;;;;;10156018;29;20055;-78
2021/01/02 00:15:24;;;;;;;15.05;4.32;;;4.70;99.90;;;;;;10154779;29;20332;-78
2021/01/02 00:20:31;;;;;;;17.60;4.65;;;;;;;;;;10166015;29;20056;-78
2021/01/02 00:25:33;;;;;;;24.70;6.18;;;4.80;99.90;;;;;;10160951;29;20052;-78
2021/01/02 00:30:55;;;;;;;23.15;5.55;;;4.80;99.90;;;;;;10161851;29;20052;-76
2021/01/02 00:36:05;;;;;;;29.48;6.90;;;4.80;99.90;;;;;;10160662;29;20445;-79
2021/01/02 00:41:08;;;;;;;26.52;6.65;;;4.70;99.90;;;;;;10167607;29;20130;-79
2021/01/02 00:46:09;;;;;;;31.57;6.70;;;4.70;99.90;;;;;;10163056;29;20732;-78
2021/01/02 00:51:11;;;;;;;34.65;6.85;;;4.70;99.90;;;;;;10169888;29;20066;-80
2021/01/02 00:56:28;;;;;;;30.65;7.78;;;4.70;99.90;;;;;;10172713;29;20524;-82
2021/01/02 01:01:36;;;;;;;27.83;6.78;;;4.70;99.90;;;;;;10170269;29;20868;-79
2021/01/02 01:06:38;;;;;;;31.42;8.13;;;4.70;99.90;;;;;;10169045;29;20052;-81
2021/01/02 01:11:46;;;;;;;33.75;7.80;;;4.80;99.90;;;;;;10170753;29;20060;-81
2021/01/02 01:16:50;;;;;;;28.52;7.07;;;4.90;99.90;;;;;;10172948;29;20484;-81
2021/01/02 01:21:56;;;;;;;37.25;7.60;;;4.90;99.90;;;;;;10168303;29;20186;-81
2021/01/02 01:27:13;;;;;;;37.65;7.70;;;5.00;99.90;;;;;;10170915;29;20131;-80
2021/01/02 01:32:19;;;;;;;35.60;7.40;;;5.00;99.90;;;;;;10170806;29;20071;-80
2021/01/02 01:37:25;;;;;;;43.30;8.20;;;5.10;99.90;;;;;;10170906;29;20047;-79
2021/01/02 01:42:40;;;;;;;22.77;6.88;;;5.20;99.90;;;;;;10169548;29;20390;-78
2021/01/02 01:47:43;;;;;;;26.60;6.45;;;5.20;99.90;;;;;;10172515;29;20048;-76
2021/01/02 01:53:10;;;;;;;32.72;7.70;;;5.20;99.90;;;;;;10168661;29;20472;-79
2021/01/02 01:58:17;;;;;;;29.70;7.18;;;;;;;;;;10171654;29;20456;-78
2021/01/02 02:03:23;;;;;;;40.67;8.38;;;5.20;99.90;;;;;;10171414;29;20111;-80
2021/01/02 02:08:40;;;;;;;46.33;9.52;;;5.00;99.90;;;;;;10161059;29;20063;-78
2021/01/02 02:13:44;;;;;;;46.00;9.65;;;4.90;99.90;;;;;;10163635;29;20062;-80
2021/01/02 02:18:51;;;;;;;56.92;11.73;;;4.90;99.90;;;;;;10169640;29;20130;-79
2021/01/02 02:23:59;;;;;;;58.63;12.50;;;4.80;99.90;;;;;;10172000;29;20156;-79
2021/01/02 02:29:24;;;;;;;67.97;14.75;;;4.80;99.90;;;;;;10167963;29;20041;-77
2021/01/02 02:34:26;;;;;;;72.07;14.32;;;4.90;99.90;;;;;;10168530;29;20064;-76
2021/01/02 02:39:27;;;;;;;68.40;14.35;;;4.90;99.90;;;;;;10169322;29;20053;-78
2021/01/02 02:44:33;;;;;;;58.58;12.65;;;4.90;99.90;;;;;;10169438;29;20087;-79
2021/01/02 02:49:37;;;;;;;62.40;12.50;;;4.80;99.90;;;;;;10168904;29;20483;-80
2021/01/02 02:54:39;;;;;;;65.13;12.48;;;4.70;99.90;;;;;;10166422;29;20064;-80
2021/01/02 02:59:41;;;;;;;43.15;11.75;;;4.60;99.90;;;;;;10168250;29;20523;-79
2021/01/02 03:04:43;;;;;;;54.17;11.95;;;4.50;99.90;;;;;;10169275;29;20054;-80
2021/01/02 03:09:44;;;;;;;49.75;11.65;;;4.40;99.90;;;;;;10165638;29;20052;-78
2021/01/02 03:14:47;;;;;;;55.63;10.00;;;4.30;99.90;;;;;;10166022;29;20080;-80
2021/01/02 03:19:48;;;;;;;32.47;8.83;;;4.30;99.90;;;;;;10164692;29;20047;-78
2021/01/02 03:24:49;;;;;;;37.60;8.93;;;4.10;99.90;;;;;;10164169;29;20051;-79
2021/01/02 03:29:51;;;;;;;42.42;9.00;;;3.90;99.90;;;;;;10161505;29;20435;-78
2021/01/02 03:34:53;;;;;;;26.27;8.35;;;3.60;99.90;;;;;;10165029;29;20056;-80
2021/01/02 03:39:54;;;;;;;33.75;8.82;;;3.40;99.90;;;;;;10167408;29;20503;-79
2021/01/02 03:44:56;;;;;;;30.10;7.78;;;3.20;99.90;;;;;;10168354;29;20060;-78
2021/01/02 03:49:57;;;;;;;33.67;8.63;;;3.20;99.90;;;;;;10168777;29;20066;-81
2021/01/02 03:54:58;;;;;;;31.33;8.25;;;3.10;99.90;;;;;;10166980;29;20128;-79
2021/01/02 04:00:01;;;;;;;44.05;10.05;;;3.10;99.90;;;;;;10167985;29;20139;-79
2021/01/02 04:05:02;;;;;;;44.50;10.35;;;3.20;99.90;;;;;;10165622;29;20138;-79
2021/01/02 04:10:05;;;;;;;60.38;10.75;;;3.50;99.90;;;;;;10167558;29;20139;-79
2021/01/02 04:15:08;;;;;;;47.25;10.82;;;3.70;99.90;;;;;;10166800;29;20058;-79
2021/01/02 04:20:10;;;;;;;45.15;10.38;;;3.80;99.90;;;;;;10168728;29;20052;-78
2021/01/02 04:25:11;;;;;;;60.28;11.32;;;4.00;99.90;;;;;;10172234;29;20048;-80
2021/01/02 04:30:15;;;;;;;48.70;10.65;;;4.00;99.90;;;;;;10166141;29;20173;-81
2021/01/02 04:35:17;;;;;;;45.65;10.10;;;4.00;99.90;;;;;;10164724;29;20056;-80
2021/01/02 04:40:18;;;;;;;35.80;8.57;;;;;;;;;;10168355;29;20404;-78
2021/01/02 04:45:21;;;;;;;36.47;8.85;;;3.80;99.90;;;;;;10166993;29;20062;-80
2021/01/02 04:50:24;;;;;;;37.20;9.13;;;3.80;99.90;;;;;;10166045;29;20048;-81
2021/01/02 04:55:27;;;;;;;26.50;7.80;;;3.70;99.90;;;;;;10166855;29;20147;-79
2021/01/02 05:00:31;;;;;;;29.77;7.47;;;3.70;99.90;;;;;;10166988;29;20119;-79
2021/01/02 05:05:32;;;;;;;36.72;8.63;;;3.60;99.90;;;;;;10164494;29;20147;-80
2021/01/02 05:10:34;;;;;;;35.78;8.38;;;3.40;99.90;;;;;;10162933;29;20135;-79
2021/01/02 05:15:36;;;;;;;49.30;10.23;;;3.20;99.90;;;;;;10167950;29;20139;-77
2021/01/02 05:20:38;;;;;;;46.67;10.43;;;3.50;99.90;;;;;;10172549;29;20106;-79
2021/01/02 05:25:39;;;;;;;44.95;9.52;;;3.70;99.90;;;;;;10164414;29;20044;-75
2021/01/02 05:30:41;;;;;;;32.30;9.05;;;3.50;99.90;;;;;;10162439;29;20396;-76
2021/01/02 05:35:44;;;;;;;45.60;9.73;;;3.20;99.90;;;;;;10167302;29;20133;-75
2021/01/02 05:40:48;;;;;;;46.22;10.68;;;3.10;99.90;;;;;;10170436;29;20058;-73
2021/01/02 05:45:51;;;;;;;48.00;12.95;;;3.10;99.90;;;;;;10171370;29;20052;-77
2021/01/02 05:50:54;;;;;;;57.50;13.98;;;3.10;99.90;;;;;;10169981;29;20188;-78
2021/01/02 05:56:04;;;;;;;64.68;16.42;;;3.00;99.90;;;;;;10169285;29;20390;-76
2021/01/02 06:01:11;;;;;;;87.55;15.90;;;3.00;99.90;;;;;;10170173;29;20152;-78
2021/01/02 06:06:15;;;;;;;104.65;18.45;;;3.20;99.90;;;;;;10169384;29;20048;-76
2021/01/02 06:11:18;;;;;;;102.05;20.80;;;3.60;99.90;;;;;;10168306;29;20044;-70
2021/01/02 06:16:20;;;;;;;;;;;3.80;99.90;;;;;;10167093;29;20146;-69
2021/01/02 06:21:21;;;;;;;113.78;20.77;;;4.00;99.90;;;;;;10167507;29;19923;-69
2021/01/02 06:26:23;;;;;;;98.57;19.45;;;4.20;99.90;;;;;;10168591;29;20135;-70
2021/01/02 06:31:25;;;;;;;116.00;21.08;;;4.30;99.90;;;;;;10168541;29;20135;-69
2021/01/02 06:36:31;;;;;;;105.10;20.33;;;4.30;99.90;;;;;;10165218;29;20064;-70
2021/01/02 06:41:32;;;;;;;85.20;21.42;;;4.30;99.90;;;;;;10168322;29;20172;-71
2021/01/02 06:46:35;;;;;;;74.68;18.50;;;4.10;99.90;;;;;;10166088;29;20049;-70
2021/01/02 06:51:36;;;;;;;69.07;17.37;;;3.70;99.90;;;;;;10163708;29;20107;-69
2021/01/02 06:56:38;;;;;;;86.97;20.00;;;;;;;;;;10166595;29;20927;-69
2021/01/02 07:01:42;;;;;;;64.32;17.45;;;3.30;99.90;;;;;;10157790;29;20133;-71
2021/01/02 07:06:44;;;;;;;86.20;20.23;;;3.20;99.90;;;;;;10158073;29;20044;-71
2021/01/02 07:11:46;;;;;;;71.30;19.00;;;3.10;99.90;;;;;;10161520;29;20500;-71
2021/01/02 07:16:50;;;;;;;69.65;17.27;;;3.00;99.90;;;;;;10164110;29;20060;-68
2021/01/02 07:21:57;;;;;;;75.30;18.90;;;2.80;99.90;;;;;;10156781;29;20044;-69
2021/01/02 07:27:00;;;;;;;72.03;20.58;;;2.50;99.90;;;;;;10154934;29;20449;-70
2021/01/02 07:32:06;;;;;;;88.45;22.08;;;;;;;;;;10161522;29;20044;-70
2021/01/02 07:37:08;;;;;;;89.15;22.67;;;;;;;;;;10155298;29;20093;-71
2021/01/02 07:42:11;;;;;;;80.53;22.87;;;;;;;;;;10159680;29;20058;-69
2021/01/02 07:47:16;;;;;;;69.17;21.27;;;2.50;99.90;;;;;;10160210;29;20040;-71
2021/01/02 07:52:18;;;;;;;76.85;21.70;;;2.40;99.90;;;;;;10160027;29;20096;-72
2021/01/02 07:57:24;;;;;;;93.00;26.27;;;2.30;99.90;;;;;;10164107;29;20095;-72
2021/01/02 08:02:28;;;;;;;116.90;28.80;;;2.90;99.90;;;;;;10167926;29;20048;-72
2021/01/02 08:07:29;;;;;;;125.90;30.90;;;2.90;99.90;;;;;;10165438;29;20060;-72
2021/01/02 08:12:31;;;;;;;104.13;25.85;;;3.50;99.90;;;;;;10155658;29;20052;-71
2021/01/02 08:17:40;;;;;;;114.25;26.80;;;3.80;99.90;;;;;;10158564;29;20059;-73
2021/01/02 08:22:41;;;;;;;126.82;27.52;;;3.90;99.90;;;;;;10158052;29;20060;-71
2021/01/02 08:27:44;;;;;;;129.82;27.85;;;4.20;99.90;;;;;;10156569;29;20131;-70
2021/01/02 08:32:52;;;;;;;115.07;26.05;;;4.90;99.90;;;;;;10159184;29;20056;-73
2021/01/02 08:37:53;;;;;;;138.50;26.23;;;5.40;99.90;;;;;;10165263;29;20060;-71
2021/01/02 08:42:55;;;;;;;101.93;19.73;;;5.40;99.90;;;;;;10164446;29;20528;-71
2021/01/02 08:48:08;;;;;;;86.75;16.00;;;5.50;99.90;;;;;;10155668;29;20158;-71
2021/01/02 08:53:24;;;;;;;46.45;8.52;;;5.60;99.90;;;;;;10160685;29;20135;-71
2021/01/02 08:58:31;;;;;;;29.52;5.90;;;5.70;99.90;;;;;;10165462;29;20135;-71
2021/01/02 09:03:34;;;;;;;23.95;5.47;;;5.80;99.90;;;;;;10161451;29;20063;-71
2021/01/02 09:08:35;;;;;;;18.63;4.35;;;5.90;99.90;;;;;;10163780;29;20162;-72
2021/01/02 09:13:36;;;;;;;15.45;4.20;;;5.90;99.90;;;;;;10166645;29;20142;-73
2021/01/02 09:18:45;;;;;;;15.18;3.03;;;5.70;99.90;;;;;;10173665;29;20115;-74
2021/01/02 09:23:46;;;;;;;11.57;1.95;;;5.30;99.90;;;;;;10194461;29;20040;-72
2021/01/02 09:28:48;;;;;;;9.77;2.92;;;5.00;99.90;;;;;;10180390;29;20060;-73
2021/01/02 09:33:52;;;;;;;23.35;4.38;;;4.80;99.90;;;;;;10169037;29;20062;-74
2021/01/02 09:38:53;;;;;;;11.07;4.97;;;4.80;99.80;;;;;;10165829;29;20056;-75
2021/01/02 09:43:57;;;;;;;14.63;5.00;;;4.80;99.40;;;;;;10166924;29;20048;-75
2021/01/02 09:48:59;;;;;;;22.23;5.50;;;4.90;98.90;;;;;;10170604;29;20087;-75
2021/01/02 09:54:00;;;;;;;32.10;9.38;;;5.00;98.30;;;;;;10169576;29;20052;-77
2021/01/02 09:59:02;;;;;;;24.98;10.38;;;5.60;97.80;;;;;;10157696;29;20139;-73
2021/01/02 10:04:03;;;;;;;30.05;10.50;;;6.10;96.80;;;;;;10171461;29;20262;-74
2021/01/02 10:09:05;;;;;;;42.55;11.48;;;9.90;91.40;;;;;;10168728;29;20067;-73
2021/01/02 10:14:07;;;;;;;28.58;8.18;;;13.60;91.10;;;;;;10167366;29;20060;-72
2021/01/02 10:19:08;;;;;;;18.35;6.10;;;15.80;74.50;;;;;;10169466;29;20150;-69
2021/01/02 10:24:10;;;;;;;26.63;7.45;;;15.00;72.90;;;;;;10167852;29;20044;-72
2021/01/02 10:29:12;;;;;;;21.13;6.32;;;15.50;72.60;;;;;;10168857;29;20079;-72
2021/01/02 10:34:15;;;;;;;20.30;5.83;;;16.10;71.70;;;;;;10166187;29;20662;-72
2021/01/02 10:39:16;;;;;;;;;;;18.80;63.90;;;;;;10168959;29;20086;-72
2021/01/02 10:44:20;;;;;;;15.90;3.72;;;21.50;55.20;;;;;;10166891;29;20021;-72
2021/01/02 10:49:23;;;;;;;14.43;2.75;;;23.20;49.90;;;;;;10164713;29;20356;-73
2021/01/02 10:54:24;;;;;;;13.27;3.60;;;;;;;;;;10163025;29;20432;-74
2021/01/02 10:59:27;;;;;;;14.20;2.58;;;22.40;56.60;;;;;;10165552;29;20190;-72
2021/01/02 11:04:28;;;;;;;7.32;2.30;;;19.40;66.30;;;;;;10166866;29;20492;-74
2021/01/02 11:09:29;;;;;;;8.50;1.40;;;17.20;70.10;;;;;;10166476;29;20086;-74
2021/01/02 11:14:32;;;;;;;10.63;1.42;;;19.00;61.30;;;;;;10165351;29;20055;-73
2021/01/02 11:19:34;;;;;;;5.35;1.80;;;17.90;61.60;;;;;;10167227;29;20086;-73
2021/01/02 11:24:39;;;;;;;8.07;1.87;;;23.50;48.70;;;;;;10165989;29;20059;-73
2021/01/02 11:29:42;;;;;;;8.00;2.03;;;23.50;49.10;;;;;;10168713;29;20100;-75
2021/01/02 11:34:43;;;;;;;14.35;2.67;;;19.50;55.90;;;;;;10165069;29;20143;-75
2021/01/02 11:39:44;;;;;;;14.85;2.20;;;18.40;60.00;;;;;;10167166;29;20492;-75
2021/01/02 11:44:46;;;;;;;6.05;1.48;;;23.50;47.20;;;;;;10166172;29;20091;-74
2021/01/02 11:49:48;;;;;;;7.10;1.60;;;25.00;44.80;;;;;;10166617;29;20044;-74
2021/01/02 11:54:50;;;;;;;11.68;3.47;;;26.60;41.00;;;;;;10163792;29;20056;-74
2021/01/02 11:59:52;;;;;;;8.27;3.13;;;25.20;40.60;;;;;;10165354;29;20071;-75
2021/01/02 12:04:54;;;;;;;;;;;24.20;42.60;;;;;;10166572;29;20062;-72
2021/01/02 12:09:55;;;;;;;7.10;2.17;;;25.90;39.50;;;;;;10164850;29;20022;-76
2021/01/02 12:14:58;;;;;;;4.20;1.50;;;;;;;;;;10163453;29;20404;-76
2021/01/02 12:20:00;;;;;;;;;;;19.20;52.10;;;;;;10165453;29;20052;-75
2021/01/02 12:25:01;;;;;;;10.83;1.77;;;14.80;65.50;;;;;;10167706;29;19938;-77
2021/01/02 12:30:05;;;;;;;6.25;1.45;;;14.30;67.50;;;;;;10164258;29;20075;-75
2021/01/02 12:35:07;;;;;;;3.83;1.00;;;14.70;65.80;;;;;;10163760;29;20048;-75
2021/01/02 12:40:09;;;;;;;5.13;1.27;;;19.10;53.70;;;;;;10162058;29;21016;-75
2021/01/02 12:45:13;;;;;;;3.42;0.80;;;22.90;44.20;;;;;;10172053;29;20044;-76
2021/01/02 12:50:16;;;;;;;5.28;1.00;;;26.30;36.90;;;;;;10176233;29;20477;-75
2021/01/02 12:55:17;;;;;;;4.22;0.90;;;28.30;38.10;;;;;;10174691;29;20139;-77
2021/01/02 13:00:20;;;;;;;12.00;0.90;;;26.50;52.30;;;;;;10172472;29;20051;-78
2021/01/02 13:05:22;;;;;;;8.77;0.65;;;;;;;;;;10173417;29;20477;-74
2021/01/02 13:10:24;;;;;;;18.63;1.52;;;16.90;66.40;;;;;;10171928;29;20487;-72
2021/01/02 13:15:26;;;;;;;12.32;1.23;;;15.30;91.00;;;;;;10172890;29;20052;-72
2021/01/02 13:20:28;;;;;;;6.27;1.80;;;13.50;79.00;;;;;;10172114;29;20496;-72
2021/01/02 13:25:29;;;;;;;3.75;1.10;;;12.30;84.90;;;;;;10172482;29;20058;-74
2021/01/02 13:30:31;;;;;;;3.08;1.00;;;11.30;87.80;;;;;;10172631;29;20067;-77
2021/01/02 13:35:33;;;;;;;1.70;0.82;;;10.70;89.70;;;;;;10171969;29;20139;-77
2021/01/02 13:40:34;;;;;;;3.47;0.95;;;10.40;90.20;;;;;;10167847;29;20048;-73
2021/01/02 13:45:36;;;;;;;6.18;1.73;;;10.20;90.80;;;;;;10169772;29;20052;-75
2021/01/02 13:50:37;;;;;;;3.53;1.05;;;9.90;90.70;;;;;;10165247;29;20063;-77
2021/01/02 13:55:39;;;;;;;3.50;1.27;;;9.50;88.90;;;;;;10167856;29;20155;-77
2021/01/02 14:00:41;;;;;;;6.07;1.70;;;9.10;88.20;;;;;;10167899;29;20052;-74
2021/01/02 14:05:42;;;;;;;6.40;3.25;;;8.70;87.70;;;;;;10170206;29;20138;-75
2021/01/02 14:10:43;;;;;;;3.83;1.90;;;8.40;88.10;;;;;;10170288;29;20123;-76
2021/01/02 14:15:46;;;;;;;6.78;1.90;;;8.00;88.70;;;;;;10169402;29;20075;-71
2021/01/02 14:20:47;;;;;;;5.38;1.65;;;7.80;89.30;;;;;;10166848;29;20083;-75
2021/01/02 14:25:49;;;;;;;7.15;1.70;;;7.70;89.00;;;;;;10143469;29;20196;-77
2021/01/02 14:30:53;;;;;;;8.57;1.85;;;7.80;88.30;;;;;;10167841;29;20076;-79
2021/01/02 14:35:54;;;;;;;20.67;10.40;;;7.90;86.90;;;;;;10162643;29;20068;-80
2021/01/02 14:40:56;;;;;;;6.07;2.10;;;7.80;87.20;;;;;;10164086;29;20480;-75
2021/01/02 14:45:58;;;;;;;34.08;19.15;;;7.60;87.60;;;;;;10168632;29;20059;-74
2021/01/02 14:51:00;;;;;;;5.32;3.10;;;7.40;88.00;;;;;;10406170;23;20063;-76
2021/01/02 14:56:01;;;;;;;3.38;2.25;;;7.20;88.20;;;;;;10211797;29;20048;-79
2021/01/02 15:01:03;;;;;;;7.93;2.22;;;6.90;88.70;;;;;;10204813;29;20134;-76
2021/01/02 15:06:04;;;;;;;5.68;1.83;;;6.70;89.50;;;;;;10203398;28;20130;-77
2021/01/02 15:11:06;;;;;;;3.63;1.95;;;6.40;89.30;;;;;;10204644;29;20052;-75
2021/01/02 15:16:08;;;;;;;59.35;29.77;;;6.10;89.50;;;;;;10204622;29;20052;-78
2021/01/02 15:21:09;;;;;;;17.52;8.75;;;5.60;89.60;;;;;;10201870;29;20138;-76
2021/01/02 15:26:14;;;;;;;22.05;9.95;;;5.20;90.50;;;;;;10198387;29;20055;-75
2021/01/02 15:31:20;;;;;;;18.05;9.10;;;5.00;91.90;;;;;;10200649;29;20043;-74
2021/01/02 15:36:24;;;;;;;6.28;3.45;;;4.60;91.40;;;;;;10203532;29;20143;-74
2021/01/02 15:41:26;;;;;;;;;;;4.40;91.90;;;;;;10204196;29;20560;-75
2021/01/02 15:46:36;;;;;;;9.38;3.70;;;4.20;92.30;;;;;;10194763;28;19922;-76
2021/01/02 15:51:40;;;;;;;63.42;27.95;;;3.90;93.00;;;;;;10242469;28;20098;-77
2021/01/02 15:56:41;;;;;;;;;;;3.90;93.70;;;;;;10246152;28;20051;-76
2021/01/02 16:01:43;;;;;;;47.35;21.45;;;3.80;93.70;;;;;;10239806;28;20012;-73
2021/01/02 16:06:45;;;;;;;111.20;46.30;;;3.60;93.90;;;;;;10243131;28;20094;-76
2021/01/02 16:11:47;;;;;;;84.40;36.75;;;3.60;95.10;;;;;;10247006;28;20067;-76
2021/01/02 16:16:49;;;;;;;25.77;13.27;;;3.60;95.80;;;;;;10247976;28;20062;-76
2021/01/02 16:21:55;;;;;;;21.93;13.00;;;3.50;95.80;;;;;;10246695;28;20388;-74
2021/01/02 16:26:58;;;;;;;15.52;8.77;;;3.40;95.60;;;;;;10243541;28;20146;-76
2021/01/02 16:32:02;;;;;;;;;;;3.20;94.70;;;;;;10237118;28;20102;-79
2021/01/02 16:37:09;;;;;;;19.95;10.70;;;3.10;95.00;;;;;;10239727;28;19937;-76
2021/01/02 16:42:11;;;;;;;23.13;11.25;;;3.00;94.80;;;;;;10235034;28;20724;-76
2021/01/02 16:47:16;;;;;;;21.70;12.33;;;2.90;94.50;;;;;;10234179;28;20109;-73
2021/01/02 16:52:19;;;;;;;16.77;8.60;;;2.80;95.00;;;;;;10240359;28;20078;-74
2021/01/02 16:57:21;;;;;;;26.88;10.95;;;2.70;94.70;;;;;;10235529;28;20090;-74
2021/01/02 17:02:23;;;;;;;21.47;10.17;;;2.60;94.30;;;;;;10234031;28;20058;-74
2021/01/02 17:07:24;;;;;;;17.13;8.27;;;2.50;94.70;;;;;;10240263;28;20149;-74
2021/01/02 17:12:25;;;;;;;28.13;13.05;;;2.50;95.10;;;;;;10242648;28;20047;-74
2021/01/02 17:17:28;;;;;;;29.33;14.53;;;2.40;94.90;;;;;;10240432;28;20058;-74
2021/01/02 17:22:29;;;;;;;37.17;15.67;;;2.30;94.80;;;;;;10238299;28;20500;-73
2021/01/02 17:27:30;;;;;;;56.57;24.70;;;2.30;95.60;;;;;;10241663;28;20061;-74
2021/01/02 17:32:32;;;;;;;49.00;27.03;;;2.30;96.50;;;;;;10246553;28;20133;-74
2021/01/02 17:37:34;;;;;;;51.87;28.50;;;2.50;97.50;;;;;;10247390;28;20057;-75
2021/01/02 17:42:35;;;;;;;93.37;39.83;;;2.70;98.00;;;;;;10246111;28;20054;-73
2021/01/02 17:47:37;;;;;;;169.20;64.90;;;2.90;99.00;;;;;;10239429;28;20051;-72
2021/01/02 17:52:38;;;;;;;64.20;23.30;;;3.30;99.90;;;;;;10243533;28;20155;-71
2021/01/02 17:57:40;;;;;;;38.60;15.15;;;3.60;99.90;;;;;;10247999;28;20524;-70
2021/01/02 18:02:42;;;;;;;28.95;4.93;;;3.80;99.90;;;;;;10246303;28;20051;-69
2021/01/02 18:07:43;;;;;;;39.63;8.35;;;;;;;;;;10249049;28;20047;-61
2021/01/02 18:12:45;;;;;;;12.68;2.90;;;4.10;99.90;;;;;;10246402;28;20047;-67
2021/01/02 18:17:47;;;;;;;11.10;5.32;;;4.20;99.90;;;;;;10246686;28;20113;-67
2021/01/02 18:22:48;;;;;;;12.38;6.80;;;4.40;99.90;;;;;;10249833;28;20134;-67
2021/01/02 18:27:49;;;;;;;25.13;11.63;;;4.40;99.90;;;;;;10249155;28;20055;-68
2021/01/02 18:32:54;;;;;;;15.50;9.13;;;4.40;99.90;;;;;;10245418;28;20134;-65
2021/01/02 18:37:55;;;;;;;15.18;9.68;;;4.30;99.90;;;;;;10249315;28;20047;-66
2021/01/02 18:42:57;;;;;;;7.63;4.68;;;4.20;99.90;;;;;;10243348;28;20050;-66
2021/01/02 18:47:59;;;;;;;18.60;9.95;;;4.20;99.90;;;;;;10245117;28;20063;-66
2021/01/02 18:53:00;;;;;;;46.40;19.80;;;4.30;99.90;;;;;;10244944;28;20082;-67
2021/01/02 18:58:02;;;;;;;56.17;22.35;;;4.60;99.90;;;;;;10246940;28;20090;-67
2021/01/02 19:03:04;;;;;;;72.35;32.63;;;4.70;99.90;;;;;;10240700;28;20108;-71
2021/01/02 19:08:06;;;;;;;25.33;14.03;;;4.70;99.90;;;;;;10243315;28;20085;-69
2021/01/02 19:13:07;;;;;;;22.20;10.70;;;4.60;99.90;;;;;;10247252;28;20138;-66
2021/01/02 19:18:10;;;;;;;19.55;8.15;;;4.40;99.90;;;;;;10246804;28;20055;-67
2021/01/02 19:23:12;;;;;;;20.17;10.05;;;4.20;99.90;;;;;;10245979;28;20039;-67
2021/01/02 19:28:13;;;;;;;34.88;17.27;;;4.20;99.90;;;;;;10236857;28;20063;-68
2021/01/02 19:33:15;;;;;;;37.10;18.88;;;4.00;99.90;;;;;;10241219;28;20051;-67
2021/01/02 19:38:17;;;;;;;28.85;14.95;;;3.90;99.80;;;;;;10245958;28;20047;-66
2021/01/02 19:43:19;;;;;;;44.42;21.73;;;3.80;99.90;;;;;;10243562;28;20059;-67
2021/01/02 19:48:21;;;;;;;40.85;19.15;;;3.80;99.90;;;;;;10240590;28;20470;-66
2021/01/02 19:53:22;;;;;;;56.05;26.58;;;3.80;99.90;;;;;;10239577;28;20153;-68
2021/01/02 19:58:24;;;;;;;53.13;22.30;;;3.90;99.90;;;;;;10241148;28;20091;-67
2021/01/02 20:03:26;;;;;;;38.85;18.70;;;3.90;99.90;;;;;;10238204;28;20628;-66
2021/01/02 20:08:28;;;;;;;39.47;18.52;;;3.70;99.90;;;;;;10239198;28;20055;-66
2021/01/02 20:13:29;;;;;;;47.05;19.83;;;3.60;99.40;;;;;;10237974;28;20097;-66
2021/01/02 20:18:31;;;;;;;49.70;22.05;;;3.50;99.30;;;;;;10240083;28;20415;-66
2021/01/02 20:23:34;;;;;;;55.28;25.50;;;3.50;99.60;;;;;;10237405;28;20479;-66
2021/01/02 20:28:35;;;;;;;85.40;33.43;;;3.60;99.90;;;;;;10236926;28;20057;-67
2021/01/02 20:33:37;;;;;;;72.85;32.08;;;3.80;99.90;;;;;;10235827;28;20055;-67
2021/01/02 20:38:39;;;;;;;77.32;30.50;;;3.80;99.90;;;;;;10238772;28;20153;-66
2021/01/02 20:43:41;;;;;;;64.25;22.90;;;3.90;99.90;;;;;;10236343;28;20484;-67
2021/01/02 20:48:44;;;;;;;70.00;33.47;;;3.90;99.90;;;;;;10235407;28;20499;-67
2021/01/02 20:53:45;;;;;;;87.38;34.97;;;4.00;99.90;;;;;;10239058;28;20047;-65
2021/01/02 20:58:48;;;;;;;65.78;29.33;;;4.10;99.90;;;;;;10238756;28;20518;-65
2021/01/02 21:03:52;;;;;;;77.35;34.33;;;4.10;99.90;;;;;;10240622;28;20427;-67
2021/01/02 21:08:53;;;;;;;;;;;4.20;99.90;;;;;;10248313;28;20692;-65
2021/01/02 21:13:54;;;;;;;84.10;32.88;;;4.30;99.90;;;;;;10245771;28;20021;-67
2021/01/02 21:18:57;;;;;;;96.95;39.13;;;4.30;99.90;;;;;;10245834;28;20163;-66
2021/01/02 21:24:01;;;;;;;120.83;43.03;;;4.30;99.90;;;;;;10246107;28;20051;-66
2021/01/02 21:29:04;;;;;;;106.95;39.30;;;4.30;99.90;;;;;;10247620;28;20043;-67
2021/01/02 21:34:08;;;;;;;137.43;45.92;;;4.20;99.90;;;;;;10245870;28;20146;-67
2021/01/02 21:39:11;;;;;;;182.00;54.20;;;4.10;99.90;;;;;;10245457;28;20146;-68
2021/01/02 21:44:13;;;;;;;151.90;53.03;;;4.00;99.90;;;;;;10240429;28;20159;-66
2021/01/02 21:49:16;;;;;;;202.77;55.17;;;4.00;99.90;;;;;;10239038;28;20056;-67
2021/01/02 21:54:17;;;;;;;263.98;59.70;;;3.90;99.90;;;;;;10228428;28;20059;-66
2021/01/02 21:59:19;;;;;;;301.08;57.65;;;4.00;99.90;;;;;;10240482;28;20475;-67
2021/01/02 22:04:21;;;;;;;367.58;59.03;;;4.10;99.90;;;;;;10243848;28;20058;-69
2021/01/02 22:09:23;;;;;;;500.90;64.43;;;4.20;99.90;;;;;;10244008;28;20055;-66
2021/01/02 22:14:24;;;;;;;476.38;62.38;;;4.30;99.90;;;;;;10241879;28;20056;-66
2021/01/02 22:19:27;;;;;;;535.47;61.13;;;4.40;99.90;;;;;;10235324;28;20129;-67
2021/01/02 22:24:30;;;;;;;510.17;60.08;;;4.40;99.90;;;;;;10234983;28;20098;-65
2021/01/02 22:29:31;;;;;;;485.83;58.25;;;4.40;99.90;;;;;;10239920;28;20052;-66
2021/01/02 22:34:34;;;;;;;454.27;55.88;;;4.40;99.90;;;;;;10241174;28;20142;-66
2021/01/02 22:39:35;;;;;;;393.88;49.00;;;4.40;99.90;;;;;;10242579;28;20047;-65
2021/01/02 22:44:37;;;;;;;432.45;46.92;;;4.40;99.90;;;;;;10228395;28;20096;-65
2021/01/02 22:49:39;;;;;;;379.73;43.88;;;4.40;99.90;;;;;;10247174;28;20142;-66
2021/01/02 22:54:41;;;;;;;412.27;45.08;;;4.30;99.90;;;;;;10248158;28;20648;-66
2021/01/02 22:59:42;;;;;;;377.52;42.50;;;4.30;99.90;;;;;;10240725;28;20043;-67
2021/01/02 23:04:45;;;;;;;521.20;48.33;;;4.20;99.90;;;;;;10241595;28;20489;-66
2021/01/02 23:09:48;;;;;;;373.75;43.28;;;4.30;99.90;;;;;;10246579;28;20055;-66
2021/01/02 23:14:49;;;;;;;382.45;43.55;;;4.30;99.90;;;;;;10246671;28;20623;-66
2021/01/02 23:19:51;;;;;;;458.63;45.80;;;4.30;99.90;;;;;;10244259;28;20137;-66
2021/01/02 23:24:52;;;;;;;308.38;42.58;;;4.30;99.90;;;;;;10244971;28;20051;-66
2021/01/02 23:29:54;;;;;;;359.95;45.35;;;4.30;99.90;;;;;;10242649;28;20208;-67
2021/01/02 23:34:56;;;;;;;354.95;42.42;;;4.30;99.90;;;;;;10242259;28;20129;-66
2021/01/02 23:39:57;;;;;;;284.30;44.42;;;4.30;99.90;;;;;;10242788;28;20043;-66
2021/01/02 23:44:58;;;;;;;353.75;47.80;;;4.40;99.90;;;;;;10240525;28;20051;-66
2021/01/02 23:50:01;;;;;;;257.90;42.80;;;4.40;99.90;;;;;;10233597;28;20129;-65
2021/01/02 23:55:02;;;;;;;278.13;44.67;;;4.40;99.90;;;;;;10243059;28;20414;-66
